Time;durP1;ratioP1;P1;durP2;ratioP2;P2;SDS_P1;SDS_P2;PMS_P1;PMS_P2;Temp;Humidity;BMP_temperature;BMP_pressure;BME280_temperature;BME280_humidity;BME280_pressure;Samples;Min_cycle;Max_cycle;Signal;HPM_P1;HPM_P2
2021/08/30 00:01:11;;;;;;;2.85;1.50;;;18.60;73.50;;;;;;2371752;53;21897;-71
2021/08/30 00:03:38;;;;;;;4.22;1.65;;;18.60;73.60;;;;;;2365734;52;21441;-73
2021/08/30 00:06:04;;;;;;;2.70;1.40;;;18.60;73.60;;;;;;2351839;53;21400;-72
2021/08/30 00:08:30;;;;;;;3.03;1.75;;;18.60;73.60;;;;;;2371187;52;21736;-73
2021/08/30 00:10:57;;;;;;;3.85;1.87;;;18.60;73.60;;;;;;2619306;52;20957;-73
2021/08/30 00:13:25;;;;;;;3.22;1.67;;;18.60;73.50;;;;;;2370105;52;21739;-72
2021/08/30 00:15:56;;;;;;;2.90;1.55;;;18.60;73.50;;;;;;2367007;53;20933;-70
2021/08/30 00:18:24;;;;;;;3.00;1.60;;;18.60;73.40;;;;;;2368968;52;20926;-72
2021/08/30 00:20:51;;;;;;;2.70;1.30;;;18.60;73.50;;;;;;2367083;53;20950;-72
2021/08/30 00:23:17;;;;;;;2.40;1.20;;;18.60;73.50;;;;;;2367375;53;21016;-72
2021/08/30 00:25:44;;;;;;;2.70;1.42;;;18.60;73.50;;;;;;2375677;52;21006;-72
2021/08/30 00:28:10;;;;;;;2.60;1.35;;;18.60;73.50;;;;;;2368613;52;20929;-71
2021/08/30 00:30:37;;;;;;;2.30;1.00;;;18.70;73.60;;;;;;2367418;53;21573;-70
2021/08/30 00:33:03;;;;;;;2.25;1.05;;;18.70;73.60;;;;;;2367126;53;22093;-72
2021/08/30 00:35:30;;;;;;;2.28;1.20;;;18.60;73.40;;;;;;2375792;52;21852;-72
2021/08/30 00:37:57;;;;;;;2.70;1.23;;;18.60;73.40;;;;;;2351635;53;21249;-70
2021/08/30 00:40:27;;;;;;;3.47;1.08;;;18.70;73.50;;;;;;2369657;52;21502;-71
2021/08/30 00:42:53;;;;;;;2.17;1.08;;;18.70;73.50;;;;;;2371781;52;20950;-70
2021/08/30 00:45:21;;;;;;;2.60;1.30;;;18.70;73.50;;;;;;2371036;53;21020;-70
2021/08/30 00:47:47;;;;;;;9.30;2.55;;;18.60;73.30;;;;;;2366351;53;20925;-73
2021/08/30 00:50:17;;;;;;;3.33;1.50;;;18.60;73.30;;;;;;2367662;53;21461;-72
2021/08/30 00:52:46;;;;;;;2.37;1.20;;;18.60;73.30;;;;;;2369778;53;20970;-71
2021/08/30 00:55:12;;;;;;;3.28;1.33;;;18.60;73.30;;;;;;2370804;53;21450;-71
2021/08/30 00:57:38;;;;;;;2.78;1.20;;;18.60;73.30;;;;;;2419096;52;20937;-72
2021/08/30 01:00:06;;;;;;;3.28;1.40;;;18.60;73.30;;;;;;2474286;52;20941;-72
2021/08/30 01:02:33;;;;;;;2.42;1.08;;;18.60;73.40;;;;;;2385077;52;20941;-73
2021/08/30 01:05:00;;;;;;;2.60;1.30;;;18.60;73.50;;;;;;2366908;53;21033;-73
2021/08/30 01:08:12;;;;;;;2.30;1.05;;;18.60;73.50;;;;;;2370809;53;20962;-71
2021/08/30 01:11:14;;;;;;;2.27;1.00;;;18.60;73.50;;;;;;2368098;53;21526;-69
2021/08/30 01:13:46;;;;;;;2.55;1.00;;;18.60;73.30;;;;;;2373122;52;20967;-73
2021/08/30 01:16:12;;;;;;;4.35;1.02;;;18.60;73.40;;;;;;2364603;53;20969;-70
2021/08/30 01:18:40;;;;;;;2.20;1.02;;;18.60;73.50;;;;;;2360905;53;21362;-73
2021/08/30 01:21:31;;;;;;;2.25;1.15;;;18.60;73.60;;;;;;2372499;53;20982;-73
2021/08/30 01:24:10;;;;;;;1.87;0.80;;;18.60;73.40;;;;;;2364667;53;21014;-70
2021/08/30 01:26:41;;;;;;;2.15;1.05;;;18.60;73.60;;;;;;2619016;52;20997;-72
2021/08/30 01:32:37;;;;;;;2.55;1.20;;;18.60;73.60;;;;;;2593819;52;20938;-69
2021/08/30 01:35:09;;;;;;;2.58;1.10;;;18.60;73.70;;;;;;2366564;53;20958;-71
2021/08/30 01:37:36;;;;;;;2.40;1.00;;;18.60;73.60;;;;;;2371453;52;20942;-72
2021/08/30 01:40:05;;;;;;;2.15;1.00;;;18.60;73.60;;;;;;2386366;52;20994;-73
2021/08/30 01:42:32;;;;;;;1.90;0.80;;;18.60;73.60;;;;;;2366776;53;21053;-71
2021/08/30 01:44:58;;;;;;;1.98;0.90;;;18.60;73.70;;;;;;2371596;52;21406;-72
2021/08/30 01:47:24;;;;;;;2.10;0.90;;;18.50;73.70;;;;;;2398637;52;20942;-72
2021/08/30 01:50:00;;;;;;;2.78;1.08;;;18.60;73.80;;;;;;2367275;53;20934;-74
2021/08/30 01:52:31;;;;;;;2.47;1.10;;;18.60;73.80;;;;;;2368160;52;21013;-71
2021/08/30 02:01:11;;;;;;;2.15;1.00;;;18.60;73.80;;;;;;2366713;52;21020;-72
2021/08/30 02:03:37;;;;;;;2.50;1.10;;;18.60;73.70;;;;;;2371793;52;21030;-70
2021/08/30 02:06:09;;;;;;;2.33;1.20;;;18.60;73.80;;;;;;2370530;53;21016;-75
2021/08/30 02:08:37;;;;;;;2.97;1.08;;;18.60;73.80;;;;;;2371427;52;20958;-72
2021/08/30 02:11:10;;;;;;;2.15;1.00;;;18.60;73.80;;;;;;2487459;52;20989;-71
2021/08/30 02:13:36;;;;;;;3.00;1.00;;;18.60;73.80;;;;;;2367513;52;21497;-71
2021/08/30 02:16:04;;;;;;;1.98;1.10;;;18.60;73.70;;;;;;2367774;53;20913;-71
2021/08/30 02:18:45;;;;;;;2.62;1.10;;;18.60;73.70;;;;;;2371695;53;20950;-73
2021/08/30 02:21:50;;;;;;;2.10;1.02;;;18.60;73.70;;;;;;2353470;53;20969;-70
2021/08/30 02:25:28;;;;;;;2.78;0.90;;;18.60;73.60;;;;;;2571108;52;21625;-72
2021/08/30 02:27:55;;;;;;;2.17;0.88;;;18.60;73.70;;;;;;2610083;52;21064;-73
2021/08/30 02:30:42;;;;;;;2.30;0.90;;;18.60;73.80;;;;;;2369587;52;20975;-70
2021/08/30 02:33:09;;;;;;;2.75;0.80;;;18.60;73.60;;;;;;2418716;52;21009;-69
2021/08/30 02:35:37;;;;;;;3.72;1.33;;;18.60;73.90;;;;;;2481506;52;21050;-73
2021/08/30 02:38:03;;;;;;;3.22;1.17;;;18.60;73.90;;;;;;2544437;52;21037;-71
2021/08/30 02:40:29;;;;;;;3.10;0.98;;;18.60;73.80;;;;;;2380260;52;20978;-70
2021/08/30 02:42:59;;;;;;;2.00;0.90;;;18.60;73.80;;;;;;2395584;52;21868;-71
2021/08/30 02:45:28;;;;;;;2.00;0.85;;;18.60;73.80;;;;;;2365228;53;20941;-72
2021/08/30 02:47:59;;;;;;;1.90;0.93;;;18.60;73.90;;;;;;2364512;53;20965;-74
2021/08/30 02:50:25;;;;;;;2.05;0.95;;;18.60;73.90;;;;;;2365009;53;21001;-72
2021/08/30 02:52:52;;;;;;;2.35;1.20;;;18.60;74.00;;;;;;2364443;53;20934;-70
2021/08/30 02:55:19;;;;;;;2.67;1.25;;;18.60;74.00;;;;;;2364845;53;20978;-72
2021/08/30 02:57:49;;;;;;;3.40;1.77;;;18.60;74.00;;;;;;2365051;53;20925;-70
2021/08/30 03:00:15;;;;;;;5.10;1.50;;;18.70;74.10;;;;;;2364764;53;21008;-73
2021/08/30 03:02:42;;;;;;;3.22;1.77;;;18.60;74.00;;;;;;2364418;53;20969;-69
2021/08/30 03:05:10;;;;;;;3.17;1.35;;;18.70;74.10;;;;;;2364755;53;20938;-73
2021/08/30 03:07:37;;;;;;;3.45;1.20;;;18.70;74.20;;;;;;2616629;52;20997;-72
2021/08/30 03:10:05;;;;;;;2.80;1.25;;;18.70;74.20;;;;;;2365081;53;20957;-70
2021/08/30 03:12:41;;;;;;;2.58;1.33;;;18.70;74.10;;;;;;2368557;53;21026;-72
2021/08/30 03:15:08;;;;;;;2.20;1.00;;;18.70;74.00;;;;;;2364803;53;20966;-72
2021/08/30 03:17:43;;;;;;;2.95;1.23;;;18.70;74.10;;;;;;2617578;52;20942;-71
2021/08/30 03:20:23;;;;;;;2.53;1.30;;;18.70;73.90;;;;;;2360738;53;20957;-74
2021/08/30 03:22:50;;;;;;;2.60;1.20;;;18.70;74.50;;;;;;2369037;53;20938;-71
2021/08/30 03:25:17;;;;;;;3.15;1.30;;;18.70;74.00;;;;;;2374502;52;20974;-73
2021/08/30 03:31:15;;;;;;;2.25;1.10;;;18.70;73.80;;;;;;2378845;52;21069;-71
2021/08/30 03:33:42;;;;;;;2.20;1.20;;;18.70;74.00;;;;;;2373552;52;20941;-70
2021/08/30 03:36:10;;;;;;;2.90;1.33;;;18.70;74.70;;;;;;2378385;52;21046;-71
2021/08/30 03:38:37;;;;;;;4.03;1.23;;;18.70;74.00;;;;;;2359439;53;21072;-71
2021/08/30 03:41:03;;;;;;;3.50;1.40;;;18.70;74.10;;;;;;2361380;53;21301;-71
2021/08/30 03:43:30;;;;;;;2.20;0.95;;;18.70;74.10;;;;;;2364120;52;21049;-71
2021/08/30 03:45:56;;;;;;;4.00;1.15;;;18.70;74.10;;;;;;2457741;52;20977;-70
2021/08/30 03:48:23;;;;;;;2.70;1.37;;;18.70;74.10;;;;;;2356339;52;21676;-72
2021/08/30 03:50:53;;;;;;;2.83;1.37;;;18.70;74.10;;;;;;2429005;52;21950;-74
2021/08/30 03:53:19;;;;;;;2.70;1.42;;;18.70;74.00;;;;;;2337290;53;20941;-71
2021/08/30 03:55:46;;;;;;;2.37;1.17;;;18.70;74.00;;;;;;2392922;52;20953;-74
2021/08/30 03:58:13;;;;;;;2.95;1.50;;;18.70;74.00;;;;;;2352237;52;21408;-73
2021/08/30 04:00:43;;;;;;;2.45;1.25;;;18.60;74.00;;;;;;2343311;53;20938;-76
2021/08/30 04:03:10;;;;;;;2.08;1.00;;;18.70;74.10;;;;;;2347287;53;20953;-72
2021/08/30 04:05:37;;;;;;;2.53;1.10;;;18.70;74.10;;;;;;2351909;52;21030;-72
2021/08/30 04:11:31;;;;;;;2.90;1.40;;;18.70;73.80;;;;;;2348059;53;20946;-72
2021/08/30 04:13:58;;;;;;;2.67;1.25;;;18.70;74.10;;;;;;2352043;52;21431;-71
2021/08/30 04:16:24;;;;;;;2.78;1.50;;;18.70;74.10;;;;;;2347329;53;20946;-72
2021/08/30 04:18:50;;;;;;;3.85;1.77;;;18.70;74.00;;;;;;2352309;52;20941;-72
2021/08/30 04:21:16;;;;;;;2.78;1.42;;;18.70;74.00;;;;;;2347428;53;21045;-70
2021/08/30 04:23:43;;;;;;;2.78;1.40;;;18.70;74.00;;;;;;2545930;52;21210;-71
2021/08/30 04:26:10;;;;;;;2.40;1.10;;;18.70;74.00;;;;;;2348912;53;21479;-70
2021/08/30 04:28:36;;;;;;;2.08;1.10;;;18.70;74.80;;;;;;2440132;52;21004;-73
2021/08/30 04:31:02;;;;;;;2.75;1.23;;;18.70;74.10;;;;;;2348930;53;20981;-72
2021/08/30 04:33:29;;;;;;;2.05;1.02;;;18.70;74.10;;;;;;2349905;53;20992;-70
2021/08/30 04:35:55;;;;;;;2.78;1.30;;;18.70;74.10;;;;;;2349420;53;20997;-72
2021/08/30 04:38:22;;;;;;;2.20;1.05;;;18.70;74.00;;;;;;2349651;53;21562;-70
2021/08/30 04:40:49;;;;;;;3.00;1.20;;;18.70;74.00;;;;;;2354030;53;20946;-71
2021/08/30 04:43:15;;;;;;;2.80;1.40;;;18.70;74.00;;;;;;2354891;52;20979;-69
2021/08/30 04:45:41;;;;;;;3.05;1.52;;;18.70;74.00;;;;;;2349237;53;20996;-71
2021/08/30 04:48:08;;;;;;;2.53;1.08;;;18.80;74.10;;;;;;2359489;52;21457;-73
2021/08/30 04:50:34;;;;;;;2.70;1.17;;;18.70;74.00;;;;;;2349846;53;20926;-68
2021/08/30 04:53:01;;;;;;;2.50;1.30;;;18.70;74.80;;;;;;2349438;52;21072;-74
2021/08/30 04:55:27;;;;;;;2.72;1.30;;;18.70;74.10;;;;;;2349866;53;21073;-73
2021/08/30 04:57:54;;;;;;;2.78;1.50;;;18.70;74.20;;;;;;2387511;52;20938;-72
2021/08/30 05:00:20;;;;;;;3.60;1.60;;;18.80;74.20;;;;;;2353512;52;20931;-74
2021/08/30 05:02:46;;;;;;;2.75;1.12;;;18.70;74.10;;;;;;2349445;53;20993;-72
2021/08/30 05:05:12;;;;;;;2.55;1.42;;;18.70;74.00;;;;;;2348621;53;20934;-70
2021/08/30 05:07:39;;;;;;;2.87;1.42;;;18.80;74.10;;;;;;2345308;53;21085;-75
2021/08/30 05:10:06;;;;;;;3.03;1.40;;;18.80;74.10;;;;;;2415058;52;20989;-70
2021/08/30 05:12:33;;;;;;;3.03;1.40;;;18.70;74.00;;;;;;2350704;52;21622;-72
2021/08/30 05:14:59;;;;;;;3.37;1.58;;;18.70;74.10;;;;;;2337624;53;20957;-72
2021/08/30 05:17:26;;;;;;;3.25;1.80;;;18.70;74.10;;;;;;2346896;52;21013;-72
2021/08/30 05:19:52;;;;;;;2.58;1.33;;;18.80;74.20;;;;;;2343218;53;20993;-73
2021/08/30 05:22:18;;;;;;;3.30;1.42;;;18.80;74.20;;;;;;2574134;52;21369;-70
2021/08/30 05:24:46;;;;;;;3.05;1.48;;;18.70;74.10;;;;;;2347549;52;21348;-71
2021/08/30 05:27:12;;;;;;;3.10;1.87;;;18.80;74.20;;;;;;2346382;53;20942;-71
2021/08/30 05:29:38;;;;;;;3.28;1.70;;;18.80;74.10;;;;;;2346641;53;22081;-74
2021/08/30 05:32:06;;;;;;;3.30;1.52;;;18.80;74.00;;;;;;2413671;52;20938;-73
2021/08/30 05:34:32;;;;;;;3.15;1.50;;;18.80;74.00;;;;;;2347381;52;21012;-72
2021/08/30 05:36:59;;;;;;;3.00;1.30;;;18.70;73.90;;;;;;2346836;53;21365;-73
2021/08/30 05:39:25;;;;;;;4.72;1.62;;;18.80;74.10;;;;;;2350756;52;21054;-70
2021/08/30 05:41:52;;;;;;;3.05;1.60;;;18.80;74.10;;;;;;2448942;52;20949;-72
2021/08/30 05:44:18;;;;;;;3.33;1.58;;;18.70;74.70;;;;;;2350221;53;21034;-73
2021/08/30 05:46:44;;;;;;;3.58;1.70;;;18.80;74.10;;;;;;2407921;52;21030;-75
2021/08/30 05:49:10;;;;;;;3.17;1.70;;;18.80;74.10;;;;;;2339348;53;21284;-72
2021/08/30 05:51:37;;;;;;;3.60;1.70;;;18.80;74.10;;;;;;2354018;52;21427;-73
2021/08/30 05:54:03;;;;;;;3.28;2.05;;;18.80;74.10;;;;;;2355124;52;20974;-72
2021/08/30 05:56:29;;;;;;;3.60;2.10;;;18.80;74.00;;;;;;2340317;52;20954;-73
2021/08/30 05:58:56;;;;;;;3.35;1.92;;;18.80;73.90;;;;;;2346370;53;21068;-72
2021/08/30 06:01:22;;;;;;;3.47;1.52;;;18.80;74.00;;;;;;2335860;53;22032;-72
2021/08/30 06:03:48;;;;;;;4.50;1.77;;;18.80;74.00;;;;;;2329768;53;21950;-71
2021/08/30 06:06:15;;;;;;;3.70;1.90;;;18.80;74.10;;;;;;2367462;52;21069;-71
2021/08/30 06:08:41;;;;;;;3.30;1.80;;;18.70;74.00;;;;;;2346604;53;20954;-70
2021/08/30 06:11:07;;;;;;;3.45;1.67;;;18.70;74.00;;;;;;2356280;52;20971;-72
2021/08/30 06:13:34;;;;;;;3.00;1.80;;;18.70;73.90;;;;;;2472115;52;20894;-71
2021/08/30 06:16:01;;;;;;;3.70;1.80;;;18.70;73.90;;;;;;2347716;52;21553;-72
2021/08/30 06:18:27;;;;;;;3.70;1.87;;;18.70;74.00;;;;;;2347066;53;20989;-71
2021/08/30 06:20:53;;;;;;;3.60;1.80;;;18.70;74.00;;;;;;2351236;52;22102;-72
2021/08/30 06:23:19;;;;;;;3.70;1.67;;;18.70;74.10;;;;;;2352492;52;21033;-70
2021/08/30 06:25:46;;;;;;;3.58;1.98;;;18.70;74.50;;;;;;2347282;52;22032;-73
2021/08/30 06:28:12;;;;;;;3.17;1.67;;;18.70;74.10;;;;;;2346571;53;20997;-70
2021/08/30 06:30:39;;;;;;;4.22;2.15;;;18.80;74.20;;;;;;2347156;53;21021;-74
2021/08/30 06:33:05;;;;;;;3.85;2.22;;;18.70;74.90;;;;;;2346861;53;20949;-73
2021/08/30 06:35:32;;;;;;;3.72;2.15;;;18.80;74.20;;;;;;2436655;52;21479;-71
2021/08/30 06:37:58;;;;;;;3.75;2.03;;;18.80;74.20;;;;;;2351184;52;21875;-72
2021/08/30 06:40:25;;;;;;;3.05;1.65;;;18.80;74.20;;;;;;2347463;53;21391;-73
2021/08/30 06:42:52;;;;;;;3.28;1.58;;;18.80;74.20;;;;;;2346880;53;21480;-72
2021/08/30 06:45:22;;;;;;;3.90;1.90;;;18.80;74.20;;;;;;2352060;52;20982;-73
2021/08/30 06:47:48;;;;;;;3.42;1.45;;;18.80;74.20;;;;;;2351584;52;21401;-70
2021/08/30 06:50:15;;;;;;;3.37;1.65;;;18.80;74.10;;;;;;2348042;53;21483;-69
2021/08/30 06:52:41;;;;;;;3.15;1.83;;;18.80;74.00;;;;;;2423394;52;20933;-72
2021/08/30 06:55:08;;;;;;;2.80;1.50;;;18.80;74.00;;;;;;2383455;52;21302;-72
2021/08/30 06:57:35;;;;;;;3.92;2.00;;;18.70;73.90;;;;;;2347933;53;21568;-72
2021/08/30 07:00:03;;;;;;;3.40;1.83;;;18.70;73.90;;;;;;2440862;52;20941;-72
2021/08/30 07:02:29;;;;;;;4.47;2.58;;;18.70;73.90;;;;;;2348582;53;20981;-72
2021/08/30 07:04:56;;;;;;;4.32;1.92;;;18.70;73.80;;;;;;2333088;53;21238;-72
2021/08/30 07:07:23;;;;;;;3.67;2.05;;;18.70;73.60;;;;;;2348187;53;20950;-73
2021/08/30 07:09:49;;;;;;;4.70;2.60;;;18.70;73.70;;;;;;2348170;53;21041;-73
2021/08/30 07:12:16;;;;;;;3.47;1.92;;;18.70;73.80;;;;;;2353097;52;21321;-74
2021/08/30 07:14:42;;;;;;;3.92;1.60;;;18.70;74.00;;;;;;2447885;52;20922;-71
2021/08/30 07:17:08;;;;;;;3.15;1.60;;;18.70;74.10;;;;;;2348663;53;21017;-73
2021/08/30 07:19:35;;;;;;;3.65;2.05;;;18.60;74.10;;;;;;2385455;52;20970;-73
2021/08/30 07:22:01;;;;;;;3.62;2.17;;;18.70;74.30;;;;;;2348946;53;20941;-72
2021/08/30 07:24:28;;;;;;;6.22;2.45;;;18.60;74.30;;;;;;2332497;53;21464;-75
2021/08/30 07:26:54;;;;;;;3.85;2.50;;;18.60;74.20;;;;;;2348408;52;20961;-71
2021/08/30 07:29:21;;;;;;;4.05;2.22;;;18.70;74.30;;;;;;2348271;53;20941;-74
2021/08/30 07:31:47;;;;;;;3.25;1.80;;;18.70;74.30;;;;;;2369464;52;20958;-73
2021/08/30 07:34:13;;;;;;;3.50;2.00;;;18.70;74.40;;;;;;2348263;53;20958;-73
2021/08/30 07:36:40;;;;;;;5.25;2.50;;;18.70;74.50;;;;;;2348074;52;20964;-73
2021/08/30 07:39:06;;;;;;;4.80;1.98;;;18.70;74.50;;;;;;2348443;53;20937;-71
2021/08/30 07:41:33;;;;;;;3.95;2.12;;;18.70;74.70;;;;;;2348129;53;21411;-73
2021/08/30 07:43:59;;;;;;;3.70;2.10;;;18.70;74.70;;;;;;2356808;53;21069;-72
2021/08/30 07:46:25;;;;;;;3.60;2.28;;;18.70;74.80;;;;;;2388730;53;20931;-71
2021/08/30 07:48:52;;;;;;;4.15;2.55;;;18.70;74.80;;;;;;2597603;52;20933;-76
2021/08/30 07:51:19;;;;;;;4.15;2.20;;;18.80;74.90;;;;;;2348166;53;21040;-71
2021/08/30 07:53:46;;;;;;;3.75;2.30;;;18.80;74.90;;;;;;2348341;53;20965;-73
2021/08/30 07:56:12;;;;;;;4.10;2.15;;;18.90;75.00;;;;;;2348096;53;20988;-72
2021/08/30 07:58:38;;;;;;;3.55;2.12;;;18.80;74.90;;;;;;2348323;53;20977;-73
2021/08/30 08:01:05;;;;;;;3.78;1.65;;;18.90;74.90;;;;;;2356858;52;21221;-74
2021/08/30 08:03:32;;;;;;;4.20;2.08;;;18.90;75.10;;;;;;2341991;53;21096;-72
2021/08/30 08:05:58;;;;;;;3.55;2.17;;;18.90;74.80;;;;;;2347350;53;21237;-72
2021/08/30 08:08:24;;;;;;;4.00;2.42;;;18.90;74.80;;;;;;2347772;53;21351;-73
2021/08/30 08:10:51;;;;;;;4.30;2.90;;;19.00;74.90;;;;;;2347218;53;20973;-73
2021/08/30 08:13:17;;;;;;;4.40;2.72;;;19.00;74.90;;;;;;2420095;52;21036;-71
2021/08/30 08:15:45;;;;;;;4.12;2.33;;;19.00;74.80;;;;;;2460140;52;21657;-70
2021/08/30 08:18:12;;;;;;;3.95;2.10;;;19.00;74.80;;;;;;2486873;52;21193;-72
2021/08/30 08:20:38;;;;;;;4.60;2.17;;;19.10;74.90;;;;;;2351660;52;20978;-74
2021/08/30 08:23:05;;;;;;;4.15;2.47;;;19.10;75.00;;;;;;2418012;52;20989;-74
2021/08/30 08:25:31;;;;;;;4.40;2.80;;;19.10;75.00;;;;;;2568389;52;20950;-71
2021/08/30 08:28:02;;;;;;;3.70;2.20;;;19.10;75.00;;;;;;2374805;52;22495;-76
2021/08/30 08:30:29;;;;;;;3.80;2.22;;;19.10;75.00;;;;;;2347256;53;20961;-72
2021/08/30 08:32:55;;;;;;;4.03;2.67;;;19.20;75.20;;;;;;2355951;52;21813;-71
2021/08/30 08:35:22;;;;;;;5.00;2.83;;;19.20;75.20;;;;;;2330324;53;20981;-73
2021/08/30 08:37:48;;;;;;;4.00;2.08;;;19.20;75.10;;;;;;2350520;52;22105;-72
2021/08/30 08:40:15;;;;;;;4.20;2.45;;;19.20;75.10;;;;;;2352613;52;21021;-71
2021/08/30 08:42:42;;;;;;;4.15;2.75;;;19.30;75.20;;;;;;2347436;53;20977;-76
2021/08/30 08:45:10;;;;;;;3.92;2.40;;;19.30;75.20;;;;;;2352344;52;20926;-74
2021/08/30 08:47:37;;;;;;;3.80;2.28;;;19.30;75.10;;;;;;2379130;52;22042;-71
2021/08/30 08:50:07;;;;;;;4.30;2.83;;;19.40;75.20;;;;;;2350703;53;20965;-76
2021/08/30 08:52:35;;;;;;;5.45;3.05;;;19.40;75.00;;;;;;2350011;56;21232;-70
2021/08/30 08:55:02;;;;;;;5.70;2.87;;;19.40;75.00;;;;;;2349718;56;21050;-72
2021/08/30 08:57:31;;;;;;;4.50;2.87;;;19.40;75.00;;;;;;2488305;52;21026;-71
2021/08/30 08:59:59;;;;;;;4.43;2.40;;;19.50;75.00;;;;;;2580305;52;20933;-71
2021/08/30 09:02:29;;;;;;;4.82;3.12;;;19.40;75.10;;;;;;2431131;52;22061;-72
2021/08/30 09:04:57;;;;;;;4.72;2.95;;;19.50;75.20;;;;;;2338967;53;20981;-75
2021/08/30 09:07:40;;;;;;;5.07;2.70;;;19.60;75.40;;;;;;2597689;52;21056;-76
2021/08/30 09:10:18;;;;;;;4.03;2.58;;;19.60;75.20;;;;;;2348363;53;21096;-75
2021/08/30 09:12:44;;;;;;;4.50;2.97;;;19.60;75.30;;;;;;2352642;52;21000;-72
2021/08/30 09:15:15;;;;;;;5.72;2.85;;;19.70;75.40;;;;;;2348408;53;21037;-72
2021/08/30 09:17:51;;;;;;;4.65;3.15;;;19.70;75.50;;;;;;2352954;52;20946;-73
2021/08/30 09:20:19;;;;;;;5.03;3.08;;;19.70;75.40;;;;;;2353880;52;20959;-73
2021/08/30 09:22:45;;;;;;;5.03;2.83;;;19.80;75.40;;;;;;2574585;52;20961;-73
2021/08/30 09:25:12;;;;;;;5.37;3.05;;;19.80;75.30;;;;;;2351256;53;21014;-76
2021/08/30 09:27:50;;;;;;;6.07;2.75;;;19.70;75.20;;;;;;2523216;52;20945;-73
2021/08/30 09:30:17;;;;;;;7.72;3.10;;;19.90;75.20;;;;;;2353824;52;20923;-70
2021/08/30 09:32:47;;;;;;;4.60;3.03;;;19.90;75.40;;;;;;2349524;53;20982;-73
2021/08/30 09:35:14;;;;;;;4.35;3.00;;;19.90;75.30;;;;;;2358117;52;21026;-74
2021/08/30 09:37:42;;;;;;;4.05;2.75;;;19.90;75.50;;;;;;2593271;52;21020;-72
2021/08/30 09:40:19;;;;;;;4.87;2.90;;;20.00;75.70;;;;;;2598816;52;22116;-71
2021/08/30 09:42:54;;;;;;;5.90;3.17;;;20.00;75.50;;;;;;2349019;53;21056;-72
2021/08/30 09:45:22;;;;;;;4.70;3.22;;;20.10;75.60;;;;;;2527737;52;21984;-71
2021/08/30 09:48:01;;;;;;;4.95;3.10;;;20.10;75.50;;;;;;2599095;52;21018;-72
2021/08/30 09:51:28;;;;;;;4.53;2.92;;;20.20;75.20;;;;;;2597403;52;21583;-70
2021/08/30 09:53:54;;;;;;;5.05;3.28;;;20.20;74.70;;;;;;2598783;52;20966;-71
2021/08/30 09:56:22;;;;;;;4.95;3.35;;;20.20;75.20;;;;;;2410115;52;20933;-76
2021/08/30 09:58:48;;;;;;;5.25;3.17;;;20.20;75.10;;;;;;2348985;53;21305;-72
2021/08/30 10:01:16;;;;;;;5.05;3.05;;;20.30;75.20;;;;;;2352325;52;20986;-78
2021/08/30 10:03:43;;;;;;;4.53;2.70;;;20.30;75.10;;;;;;2349115;53;20938;-71
2021/08/30 10:06:09;;;;;;;4.30;2.85;;;20.30;75.20;;;;;;2352257;53;21480;-72
2021/08/30 10:08:36;;;;;;;5.45;3.35;;;20.30;75.20;;;;;;2586317;52;20917;-72
2021/08/30 10:11:03;;;;;;;4.72;3.17;;;20.40;75.30;;;;;;2348940;53;20938;-72
2021/08/30 10:13:29;;;;;;;5.18;3.00;;;20.40;75.20;;;;;;2347907;53;20925;-71
2021/08/30 10:15:55;;;;;;;6.72;3.65;;;20.40;74.90;;;;;;2352333;52;21002;-70
2021/08/30 10:18:21;;;;;;;6.20;3.47;;;20.40;74.80;;;;;;2435066;52;20922;-70
2021/08/30 10:20:51;;;;;;;4.68;3.05;;;20.40;74.70;;;;;;2347387;52;20942;-71
2021/08/30 10:23:18;;;;;;;4.97;3.08;;;20.40;74.70;;;;;;2577297;52;21275;-71
2021/08/30 10:25:56;;;;;;;4.20;2.55;;;20.40;74.50;;;;;;2350772;52;21090;-70
2021/08/30 10:28:33;;;;;;;5.65;3.80;;;20.30;74.30;;;;;;2504924;52;20936;-71
2021/08/30 10:31:00;;;;;;;4.60;3.22;;;20.30;74.30;;;;;;2598289;52;21432;-74
2021/08/30 10:33:35;;;;;;;6.22;3.72;;;20.30;74.50;;;;;;2539879;52;21013;-68
2021/08/30 10:36:11;;;;;;;6.32;3.67;;;20.30;74.40;;;;;;2354125;52;21069;-72
2021/08/30 10:38:37;;;;;;;4.85;3.05;;;20.20;74.30;;;;;;2332749;53;20996;-71
2021/08/30 10:41:14;;;;;;;6.45;3.40;;;20.20;74.60;;;;;;2359358;52;21089;-70
2021/08/30 10:43:44;;;;;;;6.05;3.60;;;20.20;74.80;;;;;;2371366;53;20937;-75
2021/08/30 10:46:16;;;;;;;4.82;3.03;;;20.20;75.10;;;;;;2358141;52;21153;-72
2021/08/30 10:48:48;;;;;;;4.70;3.05;;;20.20;75.10;;;;;;2346360;53;20958;-72
2021/08/30 10:51:25;;;;;;;4.00;2.45;;;20.20;75.30;;;;;;2347150;53;22367;-73
2021/08/30 10:53:55;;;;;;;4.87;2.92;;;20.30;75.60;;;;;;2350418;53;21101;-72
2021/08/30 10:56:26;;;;;;;5.32;3.17;;;20.30;75.90;;;;;;2339066;52;21032;-69
2021/08/30 10:58:53;;;;;;;5.15;3.40;;;20.30;76.00;;;;;;2344628;53;21025;-74
2021/08/30 11:01:19;;;;;;;5.78;3.37;;;20.40;76.20;;;;;;2346366;53;21025;-70
2021/08/30 11:03:53;;;;;;;4.72;3.25;;;20.40;76.20;;;;;;2346934;53;21412;-71
2021/08/30 11:06:19;;;;;;;4.87;3.62;;;20.50;76.30;;;;;;2389882;52;21041;-71
2021/08/30 11:08:45;;;;;;;5.78;3.80;;;20.40;76.30;;;;;;2347676;53;21001;-71
2021/08/30 11:11:22;;;;;;;5.97;3.12;;;20.60;76.30;;;;;;2525954;52;21548;-71
2021/08/30 11:14:05;;;;;;;5.95;3.78;;;20.60;75.90;;;;;;2358915;52;22053;-70
2021/08/30 11:16:33;;;;;;;5.35;3.12;;;20.70;75.60;;;;;;2328605;53;20941;-71
2021/08/30 11:19:13;;;;;;;5.53;3.28;;;20.70;75.80;;;;;;2351942;52;22237;-74
2021/08/30 11:21:47;;;;;;;6.53;3.67;;;20.80;75.50;;;;;;2388870;52;20962;-72
2021/08/30 11:24:51;;;;;;;7.55;4.18;;;20.80;75.70;;;;;;2468186;52;2304892;-71
2021/08/30 11:27:24;;;;;;;5.60;3.15;;;20.80;75.70;;;;;;2337770;53;20937;-72
2021/08/30 11:29:54;;;;;;;5.90;3.50;;;20.80;75.90;;;;;;2371182;52;21504;-70
2021/08/30 11:32:22;;;;;;;5.18;3.40;;;20.90;76.20;;;;;;2347314;53;21029;-72
2021/08/30 11:34:49;;;;;;;5.90;3.90;;;20.90;76.30;;;;;;2347844;53;21969;-71
2021/08/30 11:37:19;;;;;;;5.35;3.72;;;20.90;76.30;;;;;;2347983;53;20914;-72
2021/08/30 11:39:49;;;;;;;5.68;4.07;;;21.00;76.30;;;;;;2597595;52;20950;-71
2021/08/30 11:42:17;;;;;;;5.32;3.47;;;21.00;76.30;;;;;;2383157;52;21134;-70
2021/08/30 11:44:44;;;;;;;5.43;3.70;;;21.10;76.60;;;;;;2351971;52;22066;-71
2021/08/30 11:47:12;;;;;;;5.78;3.85;;;21.20;76.80;;;;;;2344379;53;21009;-74
2021/08/30 11:49:45;;;;;;;4.70;3.37;;;21.20;76.90;;;;;;2577523;52;20918;-71
2021/08/30 11:52:13;;;;;;;6.82;4.18;;;21.30;76.90;;;;;;2350208;53;21463;-72
2021/08/30 11:54:41;;;;;;;5.22;3.67;;;21.40;77.20;;;;;;2595940;52;21481;-72
2021/08/30 11:57:10;;;;;;;6.12;3.67;;;21.50;77.40;;;;;;2348744;53;21378;-71
2021/08/30 11:59:41;;;;;;;6.03;3.92;;;21.60;77.50;;;;;;2450326;52;20986;-73
2021/08/30 12:02:09;;;;;;;5.25;3.62;;;21.70;77.50;;;;;;2408047;52;21488;-75
2021/08/30 12:04:36;;;;;;;5.90;3.97;;;21.80;77.10;;;;;;2351489;53;20956;-75
2021/08/30 12:07:08;;;;;;;5.62;3.80;;;21.80;76.60;;;;;;2347521;53;20945;-73
2021/08/30 12:09:44;;;;;;;5.80;4.35;;;22.00;76.50;;;;;;2353854;52;21566;-76
2021/08/30 12:12:15;;;;;;;6.32;4.12;;;22.00;75.80;;;;;;2329336;53;20986;-71
2021/08/30 12:14:41;;;;;;;5.95;3.85;;;22.10;76.20;;;;;;2572163;52;21098;-77
2021/08/30 12:17:07;;;;;;;6.22;3.80;;;22.20;76.20;;;;;;2330011;53;22044;-72
2021/08/30 12:19:53;;;;;;;7.65;3.92;;;22.20;76.10;;;;;;2401539;52;20958;-72
2021/08/30 12:22:29;;;;;;;5.50;4.03;;;22.30;75.50;;;;;;2432368;52;20950;-70
2021/08/30 12:25:05;;;;;;;6.57;4.20;;;22.30;75.50;;;;;;2598745;52;21116;-72
2021/08/30 12:27:33;;;;;;;6.18;4.65;;;22.40;75.10;;;;;;2349299;53;20985;-72
2021/08/30 12:30:33;;;;;;;6.10;4.35;;;22.50;75.60;;;;;;2365917;52;20973;-74
2021/08/30 12:33:06;;;;;;;5.80;3.80;;;22.60;75.30;;;;;;2349511;53;21955;-73
2021/08/30 12:35:37;;;;;;;5.03;3.70;;;22.70;75.40;;;;;;2599286;52;21093;-78
2021/08/30 12:38:14;;;;;;;6.12;4.00;;;22.70;75.20;;;;;;2521770;52;21980;-72
2021/08/30 12:40:43;;;;;;;5.15;3.80;;;22.80;74.50;;;;;;2430832;52;21034;-75
2021/08/30 12:43:10;;;;;;;5.30;4.20;;;22.90;74.60;;;;;;2324531;53;21013;-72
2021/08/30 12:45:36;;;;;;;6.80;4.47;;;22.90;74.40;;;;;;2387852;52;20979;-73
2021/08/30 12:48:06;;;;;;;6.60;4.50;;;22.90;74.00;;;;;;2350020;53;20942;-73
2021/08/30 12:50:32;;;;;;;5.75;4.25;;;22.90;73.30;;;;;;2349810;53;20945;-79
2021/08/30 12:52:58;;;;;;;5.70;4.37;;;23.00;72.90;;;;;;2380539;52;20929;-73
2021/08/30 12:55:25;;;;;;;5.87;3.45;;;23.00;72.40;;;;;;2351771;52;21467;-72
2021/08/30 12:57:51;;;;;;;5.80;3.95;;;22.90;72.10;;;;;;2348866;52;20948;-73
2021/08/30 13:00:17;;;;;;;6.78;4.00;;;22.90;72.00;;;;;;2351737;52;20938;-71
2021/08/30 13:02:50;;;;;;;5.15;3.78;;;22.90;71.70;;;;;;2328236;53;20997;-75
2021/08/30 13:05:21;;;;;;;5.62;3.97;;;22.80;71.70;;;;;;2340062;52;20942;-73
2021/08/30 13:07:48;;;;;;;6.37;3.42;;;22.80;72.00;;;;;;2336105;52;20930;-73
2021/08/30 13:10:14;;;;;;;4.93;3.72;;;22.70;72.00;;;;;;2571297;52;21487;-73
2021/08/30 13:12:41;;;;;;;5.25;3.60;;;22.60;72.10;;;;;;2352921;52;20982;-74
2021/08/30 13:15:08;;;;;;;4.93;3.33;;;22.70;72.50;;;;;;2347782;53;21005;-76